CYKF

Waterloo Airport

Kitchener, Ontario, Canada
METAR CYKF 162217Z AUTO 32012KT 9SM CLR M10/M15 A3022 RMK SLP253
Observed Flight Rules
Jan-16 @ 22:17 UTC (17 minutes ago) Visual Flight Rules
Wind Visibility Clouds
320° at 12 knots 9 miles
  • Clear skies
Temperatures Readings
Current -10°C / 14°F
Dewpoint -15°C / 5°F
Humidity 67%
Altimeter 30.22" Hg
Pressure 1025.3 hPa
Elevation 317
METAR CYKF 162217Z AUTO 32012KT 9SM CLR M10/M15 A3022 RMK SLP253
Observed Flight Rules
Jan-16 @ 22:17 UTC
(17 minutes ago)
VFR
Wind Visibility
320° at 12 knots 9 miles
Clouds
  • Clear skies
Temperature Dewpoint
-10°C / 14°F -15°C / 5°F
Humidity Altimeter Pressure
67% 30.22" Hg 1025.3 hPa